sensor_id;sensor_type;location;lat;lon;timestamp;pressure;altitude;pressure_sealevel;temperature;humidity
4836;BME280;66719;51.226;6.902;2023-07-09T00:00:49;101001.06;;;23.02;100.00
4836;BME280;66719;51.226;6.902;2023-07-09T00:03:17;101002.16;;;22.99;100.00
4836;BME280;66719;51.226;6.902;2023-07-09T00:05:47;100996.44;;;22.91;100.00
4836;BME280;66719;51.226;6.902;2023-07-09T00:08:27;101003.09;;;22.57;100.00
4836;BME280;66719;51.226;6.902;2023-07-09T00:10:56;100997.59;;;22.46;100.00
4836;BME280;66719;51.226;6.902;2023-07-09T00:13:24;101001.97;;;22.47;100.00
4836;BME280;66719;51.226;6.902;2023-07-09T00:15:53;100996.25;;;22.53;100.00
4836;BME280;66719;51.226;6.902;2023-07-09T00:18:21;100985.41;;;22.42;100.00
4836;BME280;66719;51.226;6.902;2023-07-09T00:20:49;100992.63;;;22.40;100.00
4836;BME280;66719;51.226;6.902;2023-07-09T00:23:15;100992.72;;;22.38;100.00
4836;BME280;66719;51.226;6.902;2023-07-09T00:25:43;100989.41;;;22.20;100.00
4836;BME280;66719;51.226;6.902;2023-07-09T00:28:17;100996.09;;;22.27;100.00
4836;BME280;66719;51.226;6.902;2023-07-09T00:30:44;100990.38;;;22.19;100.00
4836;BME280;66719;51.226;6.902;2023-07-09T00:33:13;100999.69;;;22.12;100.00
4836;BME280;66719;51.226;6.902;2023-07-09T00:35:47;100990.75;;;22.13;100.00
4836;BME280;66719;51.226;6.902;2023-07-09T00:38:22;100989.03;;;22.12;100.00
4836;BME280;66719;51.226;6.902;2023-07-09T00:41:06;100988.50;;;22.06;100.00
4836;BME280;66719;51.226;6.902;2023-07-09T00:43:36;100983.31;;;22.18;100.00
4836;BME280;66719;51.226;6.902;2023-07-09T00:49:00;100982.84;;;22.12;100.00
4836;BME280;66719;51.226;6.902;2023-07-09T00:51:33;100984.59;;;21.97;100.00
4836;BME280;66719;51.226;6.902;2023-07-09T00:54:29;100987.56;;;21.92;100.00
4836;BME280;66719;51.226;6.902;2023-07-09T00:57:06;100984.72;;;21.95;100.00
4836;BME280;66719;51.226;6.902;2023-07-09T00:59:35;100985.00;;;21.91;100.00
4836;BME280;66719;51.226;6.902;2023-07-09T01:02:02;100985.38;;;21.85;100.00
4836;BME280;66719;51.226;6.902;2023-07-09T01:04:30;100984.31;;;21.73;100.00
4836;BME280;66719;51.226;6.902;2023-07-09T01:06:57;100980.22;;;21.67;100.00
4836;BME280;66719;51.226;6.902;2023-07-09T01:09:24;100980.22;;;21.67;100.00
4836;BME280;66719;51.226;6.902;2023-07-09T01:11:51;100977.75;;;21.79;100.00
4836;BME280;66719;51.226;6.902;2023-07-09T01:14:22;100980.31;;;21.80;100.00
4836;BME280;66719;51.226;6.902;2023-07-09T01:16:56;100981.47;;;21.76;100.00
4836;BME280;66719;51.226;6.902;2023-07-09T01:19:26;100982.13;;;21.65;100.00
4836;BME280;66719;51.226;6.902;2023-07-09T01:21:57;100984.03;;;21.63;100.00
4836;BME280;66719;51.226;6.902;2023-07-09T01:27:12;100981.72;;;21.57;100.00
4836;BME280;66719;51.226;6.902;2023-07-09T01:29:39;100989.91;;;21.68;100.00
4836;BME280;66719;51.226;6.902;2023-07-09T01:32:13;100989.72;;;21.57;100.00
4836;BME280;66719;51.226;6.902;2023-07-09T01:34:40;100983.34;;;21.60;100.00
4836;BME280;66719;51.226;6.902;2023-07-09T01:37:07;100985.66;;;21.66;100.00
4836;BME280;66719;51.226;6.902;2023-07-09T01:39:34;100986.69;;;21.63;100.00
4836;BME280;66719;51.226;6.902;2023-07-09T01:42:02;100979.06;;;21.57;100.00
4836;BME280;66719;51.226;6.902;2023-07-09T01:44:29;100982.00;;;21.53;100.00
4836;BME280;66719;51.226;6.902;2023-07-09T01:46:55;100991.03;;;21.50;100.00
4836;BME280;66719;51.226;6.902;2023-07-09T01:49:22;100993.03;;;21.47;100.00
4836;BME280;66719;51.226;6.902;2023-07-09T01:51:49;100981.88;;;21.40;100.00
4836;BME280;66719;51.226;6.902;2023-07-09T01:54:16;100983.22;;;21.47;100.00
4836;BME280;66719;51.226;6.902;2023-07-09T01:56:43;100988.16;;;21.39;100.00
4836;BME280;66719;51.226;6.902;2023-07-09T01:59:10;100988.91;;;21.41;100.00
4836;BME280;66719;51.226;6.902;2023-07-09T02:01:37;100988.31;;;21.36;100.00
4836;BME280;66719;51.226;6.902;2023-07-09T02:04:04;100993.84;;;21.33;100.00
4836;BME280;66719;51.226;6.902;2023-07-09T02:06:31;100992.63;;;21.38;100.00
4836;BME280;66719;51.226;6.902;2023-07-09T02:08:58;100999.16;;;21.33;100.00
4836;BME280;66719;51.226;6.902;2023-07-09T02:11:25;100995.75;;;21.31;100.00
4836;BME280;66719;51.226;6.902;2023-07-09T02:13:51;100996.31;;;21.36;100.00
4836;BME280;66719;51.226;6.902;2023-07-09T02:16:18;101001.06;;;21.31;100.00
4836;BME280;66719;51.226;6.902;2023-07-09T02:18:44;100993.94;;;21.31;100.00
4836;BME280;66719;51.226;6.902;2023-07-09T02:21:11;100991.53;;;21.27;100.00
4836;BME280;66719;51.226;6.902;2023-07-09T02:23:37;101001.28;;;21.26;100.00
4836;BME280;66719;51.226;6.902;2023-07-09T02:26:04;100998.50;;;21.13;100.00
4836;BME280;66719;51.226;6.902;2023-07-09T02:28:31;101000.91;;;21.02;100.00
4836;BME280;66719;51.226;6.902;2023-07-09T02:30:57;100997.47;;;21.00;100.00
4836;BME280;66719;51.226;6.902;2023-07-09T02:33:24;100999.47;;;20.97;100.00
4836;BME280;66719;51.226;6.902;2023-07-09T02:35:50;101002.38;;;20.92;100.00
4836;BME280;66719;51.226;6.902;2023-07-09T02:38:17;100998.63;;;20.96;100.00
4836;BME280;66719;51.226;6.902;2023-07-09T02:40:43;101004.38;;;20.88;100.00
4836;BME280;66719;51.226;6.902;2023-07-09T02:43:10;100999.91;;;20.89;100.00
4836;BME280;66719;51.226;6.902;2023-07-09T02:45:36;101008.50;;;20.94;100.00
4836;BME280;66719;51.226;6.902;2023-07-09T02:48:03;101006.94;;;20.90;100.00
4836;BME280;66719;51.226;6.902;2023-07-09T02:50:30;101004.81;;;20.81;100.00
4836;BME280;66719;51.226;6.902;2023-07-09T02:52:56;101002.47;;;20.75;100.00
4836;BME280;66719;51.226;6.902;2023-07-09T02:55:23;101008.94;;;20.71;100.00
4836;BME280;66719;51.226;6.902;2023-07-09T02:57:49;101011.19;;;20.78;100.00
4836;BME280;66719;51.226;6.902;2023-07-09T03:00:16;101005.44;;;20.86;100.00
4836;BME280;66719;51.226;6.902;2023-07-09T03:02:42;100999.47;;;20.81;100.00
4836;BME280;66719;51.226;6.902;2023-07-09T03:05:09;101009.09;;;20.83;100.00
4836;BME280;66719;51.226;6.902;2023-07-09T03:07:36;101006.81;;;20.77;100.00
4836;BME280;66719;51.226;6.902;2023-07-09T03:10:03;101007.75;;;20.76;100.00
4836;BME280;66719;51.226;6.902;2023-07-09T03:12:30;101013.84;;;20.63;100.00
4836;BME280;66719;51.226;6.902;2023-07-09T03:14:56;101012.28;;;20.58;100.00
4836;BME280;66719;51.226;6.902;2023-07-09T03:17:31;101005.16;;;20.43;100.00
4836;BME280;66719;51.226;6.902;2023-07-09T03:19:58;101011.53;;;20.39;100.00
4836;BME280;66719;51.226;6.902;2023-07-09T03:22:24;101014.91;;;20.43;100.00
4836;BME280;66719;51.226;6.902;2023-07-09T03:24:51;101011.41;;;20.42;100.00
4836;BME280;66719;51.226;6.902;2023-07-09T03:27:17;101021.41;;;20.37;100.00
4836;BME280;66719;51.226;6.902;2023-07-09T03:29:44;101026.72;;;20.37;100.00
4836;BME280;66719;51.226;6.902;2023-07-09T03:32:10;101030.25;;;20.38;100.00
4836;BME280;66719;51.226;6.902;2023-07-09T03:34:37;101037.47;;;20.36;100.00
4836;BME280;66719;51.226;6.902;2023-07-09T03:37:04;101032.63;;;20.44;100.00
4836;BME280;66719;51.226;6.902;2023-07-09T03:39:30;101029.00;;;20.45;100.00
4836;BME280;66719;51.226;6.902;2023-07-09T03:41:57;101043.78;;;20.50;100.00
4836;BME280;66719;51.226;6.902;2023-07-09T03:44:24;101040.44;;;20.47;100.00
4836;BME280;66719;51.226;6.902;2023-07-09T03:46:51;101042.22;;;20.46;100.00
4836;BME280;66719;51.226;6.902;2023-07-09T03:49:17;101043.25;;;20.44;100.00
4836;BME280;66719;51.226;6.902;2023-07-09T03:51:44;101035.97;;;20.47;100.00
4836;BME280;66719;51.226;6.902;2023-07-09T03:54:10;101042.53;;;20.40;100.00
4836;BME280;66719;51.226;6.902;2023-07-09T03:56:37;101042.03;;;20.33;100.00
4836;BME280;66719;51.226;6.902;2023-07-09T03:59:04;101049.06;;;20.35;100.00
4836;BME280;66719;51.226;6.902;2023-07-09T04:01:30;101037.88;;;20.28;100.00
4836;BME280;66719;51.226;6.902;2023-07-09T04:03:57;101047.34;;;20.33;100.00
4836;BME280;66719;51.226;6.902;2023-07-09T04:06:24;101044.41;;;20.38;100.00
4836;BME280;66719;51.226;6.902;2023-07-09T04:08:50;101048.19;;;20.34;100.00
4836;BME280;66719;51.226;6.902;2023-07-09T04:11:17;101050.84;;;20.34;100.00
4836;BME280;66719;51.226;6.902;2023-07-09T04:13:43;101052.41;;;20.38;100.00
4836;BME280;66719;51.226;6.902;2023-07-09T04:16:10;101058.84;;;20.34;100.00
4836;BME280;66719;51.226;6.902;2023-07-09T04:18:37;101045.44;;;20.36;100.00
4836;BME280;66719;51.226;6.902;2023-07-09T04:21:03;101054.88;;;20.41;100.00
4836;BME280;66719;51.226;6.902;2023-07-09T04:23:30;101045.44;;;20.36;100.00
4836;BME280;66719;51.226;6.902;2023-07-09T04:25:56;101047.16;;;20.37;100.00
4836;BME280;66719;51.226;6.902;2023-07-09T04:28:23;101047.94;;;20.39;100.00
4836;BME280;66719;51.226;6.902;2023-07-09T04:30:51;101059.28;;;20.42;100.00
4836;BME280;66719;51.226;6.902;2023-07-09T04:33:18;101054.81;;;20.43;100.00
4836;BME280;66719;51.226;6.902;2023-07-09T04:35:46;101054.59;;;20.47;100.00
4836;BME280;66719;51.226;6.902;2023-07-09T04:38:14;101045.66;;;20.48;100.00
4836;BME280;66719;51.226;6.902;2023-07-09T04:40:41;101046.38;;;20.52;100.00
4836;BME280;66719;51.226;6.902;2023-07-09T04:43:08;101049.47;;;20.60;100.00
4836;BME280;66719;51.226;6.902;2023-07-09T04:45:34;101051.00;;;20.64;100.00
4836;BME280;66719;51.226;6.902;2023-07-09T04:48:01;101048.63;;;20.59;100.00
4836;BME280;66719;51.226;6.902;2023-07-09T04:50:28;101047.66;;;20.60;100.00
4836;BME280;66719;51.226;6.902;2023-07-09T04:52:54;101052.72;;;20.65;100.00
4836;BME280;66719;51.226;6.902;2023-07-09T04:55:21;101052.81;;;20.64;100.00
4836;BME280;66719;51.226;6.902;2023-07-09T04:57:48;101052.63;;;20.67;100.00
4836;BME280;66719;51.226;6.902;2023-07-09T05:00:14;101047.75;;;20.75;100.00
4836;BME280;66719;51.226;6.902;2023-07-09T05:02:41;101047.25;;;20.68;100.00
4836;BME280;66719;51.226;6.902;2023-07-09T05:05:08;101040.47;;;20.78;100.00
4836;BME280;66719;51.226;6.902;2023-07-09T05:07:34;101054.28;;;20.85;100.00
4836;BME280;66719;51.226;6.902;2023-07-09T05:10:01;101042.69;;;20.86;100.00
4836;BME280;66719;51.226;6.902;2023-07-09T05:12:27;101054.63;;;20.95;100.00
4836;BME280;66719;51.226;6.902;2023-07-09T05:14:55;101047.41;;;20.97;100.00
4836;BME280;66719;51.226;6.902;2023-07-09T05:17:23;101042.66;;;21.02;100.00
4836;BME280;66719;51.226;6.902;2023-07-09T05:19:50;101045.84;;;21.08;100.00
4836;BME280;66719;51.226;6.902;2023-07-09T05:22:17;101044.38;;;21.18;100.00
4836;BME280;66719;51.226;6.902;2023-07-09T05:24:44;101045.59;;;21.29;100.00
4836;BME280;66719;51.226;6.902;2023-07-09T05:27:11;101045.22;;;21.35;100.00
4836;BME280;66719;51.226;6.902;2023-07-09T05:29:37;101046.69;;;21.40;100.00
4836;BME280;66719;51.226;6.902;2023-07-09T05:32:04;101049.00;;;21.47;100.00
4836;BME280;66719;51.226;6.902;2023-07-09T05:34:31;101048.53;;;21.54;100.00
4836;BME280;66719;51.226;6.902;2023-07-09T05:36:57;101049.53;;;21.67;100.00
4836;BME280;66719;51.226;6.902;2023-07-09T05:39:26;101041.06;;;21.75;100.00
4836;BME280;66719;51.226;6.902;2023-07-09T05:41:53;101046.97;;;21.80;100.00
4836;BME280;66719;51.226;6.902;2023-07-09T05:44:19;101039.66;;;21.84;100.00
4836;BME280;66719;51.226;6.902;2023-07-09T05:46:46;101046.50;;;21.88;100.00
4836;BME280;66719;51.226;6.902;2023-07-09T05:49:13;101045.50;;;21.90;100.00
4836;BME280;66719;51.226;6.902;2023-07-09T05:51:40;101043.47;;;21.94;100.00
4836;BME280;66719;51.226;6.902;2023-07-09T05:54:06;101044.25;;;21.96;100.00
4836;BME280;66719;51.226;6.902;2023-07-09T05:56:33;101043.22;;;21.98;100.00
4836;BME280;66719;51.226;6.902;2023-07-09T05:58:59;101045.59;;;22.03;100.00
4836;BME280;66719;51.226;6.902;2023-07-09T06:01:26;101041.88;;;22.06;100.00
4836;BME280;66719;51.226;6.902;2023-07-09T06:03:53;101045.25;;;22.09;100.00
4836;BME280;66719;51.226;6.902;2023-07-09T06:06:20;101046.78;;;22.13;100.00
4836;BME280;66719;51.226;6.902;2023-07-09T06:08:48;101045.75;;;22.16;100.00
4836;BME280;66719;51.226;6.902;2023-07-09T06:11:16;101049.16;;;22.18;100.00
4836;BME280;66719;51.226;6.902;2023-07-09T06:13:44;101052.38;;;22.23;100.00
4836;BME280;66719;51.226;6.902;2023-07-09T06:16:10;101042.50;;;22.25;100.00
4836;BME280;66719;51.226;6.902;2023-07-09T06:18:37;101048.41;;;22.30;100.00
4836;BME280;66719;51.226;6.902;2023-07-09T06:21:04;101046.41;;;22.34;100.00
4836;BME280;66719;51.226;6.902;2023-07-09T06:23:31;101039.06;;;22.37;100.00
4836;BME280;66719;51.226;6.902;2023-07-09T06:25:58;101043.34;;;22.40;100.00
4836;BME280;66719;51.226;6.902;2023-07-09T06:28:27;101046.78;;;22.42;100.00
4836;BME280;66719;51.226;6.902;2023-07-09T06:30:55;101039.53;;;22.44;100.00
4836;BME280;66719;51.226;6.902;2023-07-09T06:33:23;101043.81;;;22.46;100.00
4836;BME280;66719;51.226;6.902;2023-07-09T06:35:52;101043.53;;;22.51;100.00
4836;BME280;66719;51.226;6.902;2023-07-09T06:38:20;101043.13;;;22.57;100.00
4836;BME280;66719;51.226;6.902;2023-07-09T06:40:48;101039.31;;;22.61;100.00
4836;BME280;66719;51.226;6.902;2023-07-09T06:43:14;101048.84;;;22.65;100.00
4836;BME280;66719;51.226;6.902;2023-07-09T06:45:53;101052.09;;;22.70;100.00
4836;BME280;66719;51.226;6.902;2023-07-09T06:48:20;101044.72;;;22.74;100.00
4836;BME280;66719;51.226;6.902;2023-07-09T06:50:47;101054.28;;;22.78;100.00
4836;BME280;66719;51.226;6.902;2023-07-09T06:53:14;101055.88;;;22.80;100.00
4836;BME280;66719;51.226;6.902;2023-07-09T06:55:41;101052.25;;;22.81;100.00
4836;BME280;66719;51.226;6.902;2023-07-09T06:58:08;101055.66;;;22.83;100.00
4836;BME280;66719;51.226;6.902;2023-07-09T07:00:38;101053.81;;;22.86;100.00
4836;BME280;66719;51.226;6.902;2023-07-09T07:03:05;101051.78;;;22.89;100.00
4836;BME280;66719;51.226;6.902;2023-07-09T07:05:33;101060.81;;;23.01;100.00
4836;BME280;66719;51.226;6.902;2023-07-09T07:08:00;101065.78;;;23.07;100.00
4836;BME280;66719;51.226;6.902;2023-07-09T07:10:27;101063.84;;;23.09;100.00
4836;BME280;66719;51.226;6.902;2023-07-09T07:12:54;101049.44;;;23.11;100.00
4836;BME280;66719;51.226;6.902;2023-07-09T07:15:20;101046.06;;;23.22;100.00
4836;BME280;66719;51.226;6.902;2023-07-09T07:17:48;101048.22;;;23.30;100.00
4836;BME280;66719;51.226;6.902;2023-07-09T07:20:15;101044.69;;;23.29;100.00
4836;BME280;66719;51.226;6.902;2023-07-09T07:22:42;101048.22;;;23.30;100.00
4836;BME280;66719;51.226;6.902;2023-07-09T07:25:08;101050.69;;;23.33;100.00
4836;BME280;66719;51.226;6.902;2023-07-09T07:27:36;101038.19;;;23.33;100.00
4836;BME280;66719;51.226;6.902;2023-07-09T07:30:04;101039.78;;;23.36;100.00
4836;BME280;66719;51.226;6.902;2023-07-09T07:32:31;101035.28;;;23.36;100.00
4836;BME280;66719;51.226;6.902;2023-07-09T07:34:57;101034.34;;;23.37;100.00
4836;BME280;66719;51.226;6.902;2023-07-09T07:37:24;101041.31;;;23.40;100.00
4836;BME280;66719;51.226;6.902;2023-07-09T07:39:51;101035.75;;;23.43;100.00
4836;BME280;66719;51.226;6.902;2023-07-09T07:42:17;101032.03;;;23.46;100.00
4836;BME280;66719;51.226;6.902;2023-07-09T07:44:44;101032.66;;;23.49;100.00
4836;BME280;66719;51.226;6.902;2023-07-09T07:47:11;101030.72;;;23.51;100.00
4836;BME280;66719;51.226;6.902;2023-07-09T07:49:38;101031.41;;;23.55;100.00
4836;BME280;66719;51.226;6.902;2023-07-09T07:52:06;101040.91;;;23.59;100.00
4836;BME280;66719;51.226;6.902;2023-07-09T07:54:33;101033.66;;;23.61;100.00
4836;BME280;66719;51.226;6.902;2023-07-09T07:57:00;101034.41;;;23.63;100.00
4836;BME280;66719;51.226;6.902;2023-07-09T07:59:26;101027.69;;;23.70;100.00
4836;BME280;66719;51.226;6.902;2023-07-09T08:01:53;101028.34;;;23.74;100.00
4836;BME280;66719;51.226;6.902;2023-07-09T08:04:19;101026.00;;;23.82;100.00
4836;BME280;66719;51.226;6.902;2023-07-09T08:06:46;101024.94;;;23.84;100.00
4836;BME280;66719;51.226;6.902;2023-07-09T08:09:15;101025.38;;;23.91;100.00
4836;BME280;66719;51.226;6.902;2023-07-09T08:11:42;101031.47;;;23.93;100.00
4836;BME280;66719;51.226;6.902;2023-07-09T08:14:09;101033.63;;;24.01;100.00
4836;BME280;66719;51.226;6.902;2023-07-09T08:16:36;101042.28;;;24.04;100.00
4836;BME280;66719;51.226;6.902;2023-07-09T08:19:03;101036.06;;;24.04;100.00
4836;BME280;66719;51.226;6.902;2023-07-09T08:21:30;101031.91;;;24.00;100.00
4836;BME280;66719;51.226;6.902;2023-07-09T08:23:56;101031.91;;;24.00;100.00
4836;BME280;66719;51.226;6.902;2023-07-09T08:26:23;101027.28;;;24.02;100.00
4836;BME280;66719;51.226;6.902;2023-07-09T08:28:51;101024.28;;;24.06;100.00
4836;BME280;66719;51.226;6.902;2023-07-09T08:31:18;101022.78;;;24.15;100.00
4836;BME280;66719;51.226;6.902;2023-07-09T08:33:45;101023.75;;;24.14;100.00
4836;BME280;66719;51.226;6.902;2023-07-09T08:36:12;101020.88;;;24.17;100.00
4836;BME280;66719;51.226;6.902;2023-07-09T08:38:38;101017.97;;;24.20;100.00
4836;BME280;66719;51.226;6.902;2023-07-09T08:49:23;101001.22;;;24.55;100.00
4836;BME280;66719;51.226;6.902;2023-07-09T08:51:55;101003.66;;;24.58;100.00
4836;BME280;66719;51.226;6.902;2023-07-09T08:54:28;101001.66;;;24.61;100.00
4836;BME280;66719;51.226;6.902;2023-07-09T08:57:00;101006.16;;;24.61;100.00
4836;BME280;66719;51.226;6.902;2023-07-09T08:59:31;101003.13;;;24.65;100.00
4836;BME280;66719;51.226;6.902;2023-07-09T09:02:00;101003.00;;;24.67;100.00
4836;BME280;66719;51.226;6.902;2023-07-09T09:04:32;101002.97;;;24.79;100.00
4836;BME280;66719;51.226;6.902;2023-07-09T09:07:28;100993.22;;;24.78;100.00
4836;BME280;66719;51.226;6.902;2023-07-09T09:10:00;101008.34;;;24.79;100.00
4836;BME280;66719;51.226;6.902;2023-07-09T09:12:35;100999.50;;;24.90;100.00
4836;BME280;66719;51.226;6.902;2023-07-09T09:15:10;100995.09;;;24.89;100.00
4836;BME280;66719;51.226;6.902;2023-07-09T09:17:39;100991.91;;;24.84;100.00
4836;BME280;66719;51.226;6.902;2023-07-09T09:20:19;100993.97;;;24.80;100.00
4836;BME280;66719;51.226;6.902;2023-07-09T09:25:30;100995.63;;;24.94;100.00
4836;BME280;66719;51.226;6.902;2023-07-09T09:28:00;100989.91;;;24.99;100.00
4836;BME280;66719;51.226;6.902;2023-07-09T09:30:28;100999.25;;;25.06;100.00
4836;BME280;66719;51.226;6.902;2023-07-09T09:33:17;100987.84;;;25.15;100.00
4836;BME280;66719;51.226;6.902;2023-07-09T09:35:45;100981.38;;;25.18;100.00
4836;BME280;66719;51.226;6.902;2023-07-09T09:41:19;100979.94;;;25.25;100.00
4836;BME280;66719;51.226;6.902;2023-07-09T09:43:47;100974.00;;;25.32;100.00
4836;BME280;66719;51.226;6.902;2023-07-09T09:46:20;100983.63;;;25.35;100.00
4836;BME280;66719;51.226;6.902;2023-07-09T09:48:49;100988.94;;;25.48;97.02
4836;BME280;66719;51.226;6.902;2023-07-09T09:51:18;100991.50;;;25.60;94.13
4836;BME280;66719;51.226;6.902;2023-07-09T09:53:50;100988.09;;;25.70;93.29
4836;BME280;66719;51.226;6.902;2023-07-09T09:56:29;100977.66;;;25.78;89.93
4836;BME280;66719;51.226;6.902;2023-07-09T09:58:57;100979.16;;;25.82;90.83
4836;BME280;66719;51.226;6.902;2023-07-09T10:01:32;100978.38;;;25.80;94.89
4836;BME280;66719;51.226;6.902;2023-07-09T10:04:02;100973.41;;;25.75;99.03
4836;BME280;66719;51.226;6.902;2023-07-09T10:06:34;100978.38;;;25.80;99.04
4836;BME280;66719;51.226;6.902;2023-07-09T10:14:48;100969.75;;;26.10;91.22
4836;BME280;66719;51.226;6.902;2023-07-09T10:17:38;100966.94;;;26.11;91.50
4836;BME280;66719;51.226;6.902;2023-07-09T10:22:59;100960.38;;;26.15;89.63
4836;BME280;66719;51.226;6.902;2023-07-09T10:25:48;100957.41;;;26.30;88.23
4836;BME280;66719;51.226;6.902;2023-07-09T10:31:33;100960.81;;;26.54;85.79
4836;BME280;66719;51.226;6.902;2023-07-09T10:34:06;100955.84;;;26.82;81.00
4836;BME280;66719;51.226;6.902;2023-07-09T10:36:58;100957.38;;;27.07;80.66
4836;BME280;66719;51.226;6.902;2023-07-09T10:39:31;100963.97;;;27.14;79.35
4836;BME280;66719;51.226;6.902;2023-07-09T10:42:01;100963.53;;;27.29;80.67
4836;BME280;66719;51.226;6.902;2023-07-09T10:44:35;100962.59;;;27.19;79.27
4836;BME280;66719;51.226;6.902;2023-07-09T10:47:06;100964.50;;;27.28;77.21
4836;BME280;66719;51.226;6.902;2023-07-09T10:49:40;100951.09;;;27.17;80.76
4836;BME280;66719;51.226;6.902;2023-07-09T10:52:17;100956.44;;;27.28;79.85
4836;BME280;66719;51.226;6.902;2023-07-09T10:54:58;100954.25;;;27.22;79.42
4836;BME280;66719;51.226;6.902;2023-07-09T10:57:47;100954.81;;;27.37;75.67
4836;BME280;66719;51.226;6.902;2023-07-09T11:00:20;100962.09;;;27.67;74.59
4836;BME280;66719;51.226;6.902;2023-07-09T11:02:58;100958.41;;;27.47;77.17
4836;BME280;66719;51.226;6.902;2023-07-09T11:05:26;100951.44;;;27.45;74.88
4836;BME280;66719;51.226;6.902;2023-07-09T11:08:00;100955.72;;;27.68;72.50
4836;BME280;66719;51.226;6.902;2023-07-09T11:10:32;100941.66;;;27.65;75.43
4836;BME280;66719;51.226;6.902;2023-07-09T11:13:39;100939.44;;;27.49;76.85
4836;BME280;66719;51.226;6.902;2023-07-09T11:16:39;100938.22;;;27.83;72.07
4836;BME280;66719;51.226;6.902;2023-07-09T11:19:13;100926.63;;;27.83;73.08
4836;BME280;66719;51.226;6.902;2023-07-09T11:22:04;100928.63;;;27.91;71.74
4836;BME280;66719;51.226;6.902;2023-07-09T11:24:52;100921.41;;;27.91;73.07
4836;BME280;66719;51.226;6.902;2023-07-09T11:27:26;100919.81;;;28.19;68.66
4836;BME280;66719;51.226;6.902;2023-07-09T11:30:02;100918.25;;;28.26;67.79
4836;BME280;66719;51.226;6.902;2023-07-09T11:32:29;100912.44;;;28.21;69.97
4836;BME280;66719;51.226;6.902;2023-07-09T11:35:07;100899.25;;;28.18;70.56
4836;BME280;66719;51.226;6.902;2023-07-09T11:37:44;100898.22;;;28.09;72.01
4836;BME280;66719;51.226;6.902;2023-07-09T11:40:12;100899.91;;;28.01;73.23
4836;BME280;66719;51.226;6.902;2023-07-09T11:42:56;100891.00;;;28.10;69.14
4836;BME280;66719;51.226;6.902;2023-07-09T11:45:33;100896.91;;;28.44;68.52
4836;BME280;66719;51.226;6.902;2023-07-09T11:48:25;100896.78;;;28.84;67.46
4836;BME280;66719;51.226;6.902;2023-07-09T11:50:54;100897.50;;;29.15;65.65
4836;BME280;66719;51.226;6.902;2023-07-09T11:53:34;100906.53;;;29.43;61.50
4836;BME280;66719;51.226;6.902;2023-07-09T11:56:03;100903.56;;;29.46;61.83
4836;BME280;66719;51.226;6.902;2023-07-09T11:58:30;100898.88;;;29.48;63.16
4836;BME280;66719;51.226;6.902;2023-07-09T12:00:57;100900.56;;;29.59;63.63
4836;BME280;66719;51.226;6.902;2023-07-09T12:03:28;100900.31;;;29.90;64.89
4836;BME280;66719;51.226;6.902;2023-07-09T12:06:00;100903.81;;;30.00;67.39
4836;BME280;66719;51.226;6.902;2023-07-09T12:08:38;100906.03;;;30.14;64.96
4836;BME280;66719;51.226;6.902;2023-07-09T12:11:16;100900.97;;;30.29;63.92
4836;BME280;66719;51.226;6.902;2023-07-09T12:13:44;100911.78;;;30.74;59.18
4836;BME280;66719;51.226;6.902;2023-07-09T12:16:26;100915.28;;;30.84;58.96
4836;BME280;66719;51.226;6.902;2023-07-09T12:18:53;100916.06;;;30.77;62.72
4836;BME280;66719;51.226;6.902;2023-07-09T12:21:20;100909.41;;;30.71;60.33
4836;BME280;66719;51.226;6.902;2023-07-09T12:23:48;100914.31;;;31.11;61.85
4836;BME280;66719;51.226;6.902;2023-07-09T12:26:17;100906.88;;;31.13;60.32
4836;BME280;66719;51.226;6.902;2023-07-09T12:28:56;100892.28;;;31.06;59.48
4836;BME280;66719;51.226;6.902;2023-07-09T12:31:29;100886.47;;;31.01;60.31
4836;BME280;66719;51.226;6.902;2023-07-09T12:33:58;100865.72;;;31.02;62.25
4836;BME280;66719;51.226;6.902;2023-07-09T12:36:27;100866.56;;;31.02;67.05
4836;BME280;66719;51.226;6.902;2023-07-09T12:38:57;100873.50;;;31.05;59.95
4836;BME280;66719;51.226;6.902;2023-07-09T12:41:32;100862.19;;;31.09;60.56
4836;BME280;66719;51.226;6.902;2023-07-09T12:44:01;100864.41;;;31.32;61.79
4836;BME280;66719;51.226;6.902;2023-07-09T12:46:28;100866.25;;;31.57;60.87
4836;BME280;66719;51.226;6.902;2023-07-09T12:48:55;100868.13;;;31.31;60.42
4836;BME280;66719;51.226;6.902;2023-07-09T12:51:28;100867.97;;;31.14;58.67
4836;BME280;66719;51.226;6.902;2023-07-09T12:54:15;100857.47;;;30.85;60.12
4836;BME280;66719;51.226;6.902;2023-07-09T12:56:42;100848.00;;;30.54;62.41
4836;BME280;66719;51.226;6.902;2023-07-09T12:59:27;100848.59;;;30.30;66.18
4836;BME280;66719;51.226;6.902;2023-07-09T13:02:20;100837.94;;;30.10;66.33
4836;BME280;66719;51.226;6.902;2023-07-09T13:04:48;100836.03;;;29.93;65.22
4836;BME280;66719;51.226;6.902;2023-07-09T13:09:51;100845.63;;;29.78;64.67
4836;BME280;66719;51.226;6.902;2023-07-09T13:12:20;100836.19;;;29.64;66.32
4836;BME280;66719;51.226;6.902;2023-07-09T13:14:53;100820.31;;;29.51;67.66
4836;BME280;66719;51.226;6.902;2023-07-09T13:17:21;100815.06;;;29.40;69.21
4836;BME280;66719;51.226;6.902;2023-07-09T13:19:48;100815.53;;;29.26;68.88
4836;BME280;66719;51.226;6.902;2023-07-09T13:22:18;100819.72;;;29.11;69.83
4836;BME280;66719;51.226;6.902;2023-07-09T13:24:45;100812.19;;;29.05;67.82
4836;BME280;66719;51.226;6.902;2023-07-09T13:27:13;100809.69;;;28.93;71.35
4836;BME280;66719;51.226;6.902;2023-07-09T13:29:40;100807.09;;;28.82;72.76
4836;BME280;66719;51.226;6.902;2023-07-09T13:32:13;100813.06;;;28.95;67.41
4836;BME280;66719;51.226;6.902;2023-07-09T13:34:40;100824.69;;;29.06;66.19
4836;BME280;66719;51.226;6.902;2023-07-09T13:37:15;100823.69;;;29.07;65.96
4836;BME280;66719;51.226;6.902;2023-07-09T13:39:42;100823.56;;;28.98;67.14